createdAt,value
2022-08-03T00:00:40.044Z,15.53
2022-08-03T00:03:08.866Z,15.54
2022-08-03T00:05:39.188Z,15.49
2022-08-03T00:08:08.993Z,15.46
2022-08-03T00:10:39.464Z,15.43
2022-08-03T00:13:08.254Z,15.38
2022-08-03T00:15:37.123Z,15.35
2022-08-03T00:18:05.852Z,15.33
2022-08-03T00:20:34.605Z,15.33
2022-08-03T00:23:03.823Z,15.27
2022-08-03T00:25:32.637Z,15.25
2022-08-03T00:28:01.381Z,15.20
2022-08-03T00:30:30.959Z,15.16
2022-08-03T00:33:00.162Z,15.10
2022-08-03T00:35:50.078Z,15.09
2022-08-03T00:38:00.231Z,14.97
2022-08-03T00:40:29.016Z,14.97
2022-08-03T00:42:59.298Z,14.93
2022-08-03T00:45:29.547Z,14.86
2022-08-03T00:47:59.193Z,14.85
2022-08-03T00:50:32.432Z,14.84
2022-08-03T00:53:01.827Z,14.83
2022-08-03T00:55:30.641Z,14.78
2022-08-03T00:57:59.550Z,14.75
2022-08-03T01:00:29.380Z,14.74
2022-08-03T01:02:58.200Z,14.71
2022-08-03T01:05:27.004Z,14.72
2022-08-03T01:08:03.112Z,14.71
2022-08-03T01:10:39.154Z,14.68
2022-08-03T01:13:59.919Z,14.66
2022-08-03T01:16:06.103Z,14.66
2022-08-03T01:18:38.994Z,14.62
2022-08-03T01:21:09.288Z,14.61
2022-08-03T01:23:50.164Z,14.60
2022-08-03T01:26:20.411Z,14.58
2022-08-03T01:28:50.743Z,14.57
2022-08-03T01:31:20.973Z,14.55
2022-08-03T01:33:52.477Z,14.54
2022-08-03T01:36:22.724Z,14.54
2022-08-03T01:38:56.309Z,14.50
2022-08-03T01:41:29.358Z,14.50
2022-08-03T01:44:26.968Z,14.50
2022-08-03T01:46:29.609Z,14.49
2022-08-03T01:48:59.595Z,14.44
2022-08-03T01:52:03.894Z,14.44
2022-08-03T01:54:01.519Z,14.41
2022-08-03T01:56:31.730Z,14.41
2022-08-03T01:59:01.843Z,14.40
2022-08-03T02:02:19.557Z,14.40
2022-08-03T02:04:02.079Z,14.36
2022-08-03T02:07:00.330Z,14.35
2022-08-03T02:09:03.212Z,14.30
2022-08-03T02:11:32.648Z,14.29
2022-08-03T02:14:03.285Z,14.29
2022-08-03T02:16:35.045Z,14.28
2022-08-03T02:19:05.755Z,14.27
2022-08-03T02:21:57.305Z,14.25
2022-08-03T02:24:08.078Z,14.24
2022-08-03T02:26:38.325Z,14.22
2022-08-03T02:29:08.589Z,14.23
2022-08-03T02:31:39.943Z,14.27
2022-08-03T02:34:10.181Z,14.28
2022-08-03T02:36:40.119Z,14.30
2022-08-03T02:39:25.720Z,14.33
2022-08-03T02:41:57.360Z,14.37
2022-08-03T02:44:28.955Z,14.40
2022-08-03T02:47:00.254Z,14.45
2022-08-03T02:49:41.061Z,14.51
2022-08-03T02:52:01.383Z,14.53
2022-08-03T02:54:31.546Z,14.59
2022-08-03T02:57:01.404Z,14.59
2022-08-03T02:59:31.824Z,14.59
2022-08-03T03:02:01.836Z,14.67
2022-08-03T03:04:33.169Z,14.71
2022-08-03T03:07:03.741Z,14.76
2022-08-03T03:09:40.512Z,14.80
2022-08-03T03:12:04.905Z,14.84
2022-08-03T03:14:34.958Z,14.84
2022-08-03T03:17:04.285Z,14.88
2022-08-03T03:19:34.360Z,14.81
2022-08-03T03:22:04.832Z,14.85
2022-08-03T03:24:34.053Z,14.82
2022-08-03T03:27:03.354Z,14.88
2022-08-03T03:29:37.058Z,14.91
2022-08-03T03:32:05.840Z,14.94
2022-08-03T03:34:37.290Z,14.87
2022-08-03T03:37:07.530Z,14.94
2022-08-03T03:39:36.519Z,14.89
2022-08-03T03:42:05.822Z,14.92
2022-08-03T03:44:34.724Z,14.86
2022-08-03T03:47:03.626Z,14.85
2022-08-03T03:49:33.138Z,14.85
2022-08-03T03:52:02.100Z,14.90
2022-08-03T03:54:41.329Z,14.89
2022-08-03T03:57:13.848Z,14.94
2022-08-03T03:59:42.991Z,14.91
2022-08-03T04:02:12.418Z,14.86
2022-08-03T04:04:59.311Z,14.92
2022-08-03T04:07:46.484Z,14.79
2022-08-03T04:10:34.773Z,14.88
2022-08-03T04:13:04.991Z,14.93
2022-08-03T04:15:34.914Z,14.86
2022-08-03T04:18:04.723Z,14.92
2022-08-03T04:20:34.970Z,14.83
2022-08-03T04:23:05.184Z,14.89
2022-08-03T04:25:36.662Z,14.88
2022-08-03T04:28:29.745Z,14.77
2022-08-03T04:30:38.493Z,14.85
2022-08-03T04:33:08.381Z,14.92
2022-08-03T04:36:02.249Z,14.94
2022-08-03T04:38:08.582Z,14.92
2022-08-03T04:40:38.303Z,14.92
2022-08-03T04:43:07.231Z,14.98
2022-08-03T04:45:36.640Z,15.02
2022-08-03T04:48:05.727Z,15.03
2022-08-03T04:50:34.926Z,15.00
2022-08-03T04:53:07.399Z,15.04
2022-08-03T04:55:36.578Z,15.09
2022-08-03T04:58:07.776Z,15.15
2022-08-03T05:00:36.609Z,15.18
2022-08-03T05:03:19.593Z,15.27
2022-08-03T05:05:49.926Z,15.35
2022-08-03T05:08:11.224Z,15.51
2022-08-03T05:10:37.695Z,15.91
2022-08-03T05:13:06.504Z,16.49
2022-08-03T05:15:36.244Z,16.90
2022-08-03T05:18:09.580Z,17.51
2022-08-03T05:20:37.220Z,17.86
2022-08-03T05:23:05.974Z,18.19
2022-08-03T05:25:35.003Z,18.59
2022-08-03T05:28:03.839Z,18.91
2022-08-03T05:30:34.310Z,19.20
2022-08-03T05:33:03.947Z,19.65
2022-08-03T05:35:57.302Z,19.94
2022-08-03T05:38:06.111Z,20.21
2022-08-03T05:40:36.465Z,20.43
2022-08-03T05:43:06.054Z,20.55
2022-08-03T05:45:34.940Z,20.61
2022-08-03T05:48:03.764Z,20.91
2022-08-03T05:50:32.586Z,20.98
2022-08-03T05:53:01.453Z,21.10
2022-08-03T05:55:30.429Z,21.12
2022-08-03T05:57:59.318Z,20.94
2022-08-03T06:00:28.125Z,21.20
2022-08-03T06:02:57.385Z,21.11
2022-08-03T06:05:27.817Z,20.78
2022-08-03T06:07:56.537Z,20.76
2022-08-03T06:10:35.550Z,21.30
2022-08-03T06:12:55.658Z,21.37
2022-08-03T06:15:24.416Z,21.34
2022-08-03T06:17:53.207Z,21.98
2022-08-03T06:20:22.211Z,21.93
2022-08-03T06:23:00.949Z,21.44
2022-08-03T06:25:23.134Z,21.38
2022-08-03T06:27:51.846Z,21.33
2022-08-03T06:30:21.416Z,21.37
2022-08-03T06:32:51.651Z,21.22
2022-08-03T06:35:21.147Z,21.48
2022-08-03T06:37:51.620Z,21.89
2022-08-03T06:40:24.584Z,21.69
2022-08-03T06:42:53.678Z,21.44
2022-08-03T06:45:22.491Z,21.70
2022-08-03T06:47:52.731Z,21.85
2022-08-03T06:50:25.986Z,22.34
2022-08-03T06:52:52.070Z,22.59
2022-08-03T06:55:20.947Z,22.31
2022-08-03T06:57:49.788Z,22.60
2022-08-03T07:00:19.092Z,22.71
2022-08-03T07:02:47.988Z,22.93
2022-08-03T07:05:18.420Z,23.22
2022-08-03T07:07:47.258Z,23.63
2022-08-03T07:10:16.000Z,23.85
2022-08-03T07:12:52.740Z,23.92
2022-08-03T07:15:20.262Z,24.08
2022-08-03T07:17:48.527Z,23.85
2022-08-03T07:20:18.280Z,23.88
2022-08-03T07:22:47.037Z,23.76
2022-08-03T07:25:16.408Z,23.97
2022-08-03T07:27:50.045Z,24.27
2022-08-03T07:30:16.664Z,24.37
2022-08-03T07:32:50.194Z,24.01
2022-08-03T07:35:24.944Z,24.47
2022-08-03T07:37:54.564Z,24.42
2022-08-03T07:40:17.718Z,24.52
2022-08-03T07:42:46.499Z,24.56
2022-08-03T07:45:16.681Z,24.92
2022-08-03T07:47:46.194Z,25.02
2022-08-03T07:50:16.210Z,25.47
2022-08-03T07:52:50.867Z,25.37
2022-08-03T07:55:21.037Z,25.03
2022-08-03T07:57:51.254Z,25.25
2022-08-03T08:00:20.746Z,25.49
2022-08-03T08:02:49.540Z,26.08
2022-08-03T08:05:18.285Z,26.30
2022-08-03T08:07:50.714Z,26.39
2022-08-03T08:10:17.414Z,26.87
2022-08-03T08:12:46.276Z,26.99
2022-08-03T08:15:15.755Z,26.78
2022-08-03T08:17:49.119Z,26.87
2022-08-03T08:20:27.818Z,27.15
2022-08-03T08:22:50.585Z,27.62
2022-08-03T08:25:21.126Z,27.59
2022-08-03T08:28:22.541Z,27.76
2022-08-03T08:30:23.063Z,27.97
2022-08-03T08:32:52.280Z,27.75
2022-08-03T08:35:21.105Z,28.05
2022-08-03T08:37:51.484Z,28.19
2022-08-03T08:40:23.581Z,28.19
2022-08-03T08:43:00.437Z,28.02
2022-08-03T08:45:23.926Z,28.12
2022-08-03T08:47:55.771Z,28.33
2022-08-03T08:50:27.233Z,28.39
2022-08-03T08:52:55.826Z,28.31
2022-08-03T08:55:24.757Z,28.49
2022-08-03T08:58:07.176Z,28.95
2022-08-03T09:00:35.981Z,28.80
2022-08-03T09:03:05.049Z,28.86
2022-08-03T09:05:55.024Z,29.24
2022-08-03T09:08:06.799Z,29.56
2022-08-03T09:10:36.101Z,29.74
2022-08-03T09:13:09.413Z,29.82
2022-08-03T09:15:39.194Z,29.59
2022-08-03T09:18:09.507Z,29.14
2022-08-03T09:20:38.498Z,29.75
2022-08-03T09:23:58.862Z,29.84
2022-08-03T09:25:43.262Z,30.39
2022-08-03T09:28:13.080Z,30.07
2022-08-03T09:30:44.692Z,29.14
2022-08-03T09:33:16.358Z,29.81
2022-08-03T09:35:55.065Z,29.87
2022-08-03T09:38:18.524Z,30.06
2022-08-03T09:40:47.328Z,30.26
2022-08-03T09:43:18.576Z,30.50
2022-08-03T09:45:48.525Z,30.63
2022-08-03T09:48:24.667Z,30.40
2022-08-03T09:50:58.715Z,30.89
2022-08-03T09:53:26.839Z,31.33
2022-08-03T09:56:34.314Z,31.01
2022-08-03T09:58:32.107Z,31.33
2022-08-03T10:01:05.441Z,30.87
2022-08-03T10:03:36.068Z,31.22
2022-08-03T10:06:28.888Z,30.91
2022-08-03T10:09:07.351Z,31.17
2022-08-03T10:11:41.236Z,30.86
2022-08-03T10:14:08.513Z,30.65
2022-08-03T10:16:38.812Z,30.92
2022-08-03T10:19:09.798Z,31.50
2022-08-03T10:21:39.512Z,31.21
2022-08-03T10:24:11.738Z,31.59
2022-08-03T10:26:50.035Z,30.52
2022-08-03T10:29:12.986Z,30.91
2022-08-03T10:31:57.336Z,30.96
2022-08-03T10:34:18.351Z,31.67
2022-08-03T10:36:48.539Z,31.30
2022-08-03T10:39:18.788Z,32.01
2022-08-03T10:41:49.226Z,32.00
2022-08-03T10:44:21.770Z,32.44
2022-08-03T10:46:50.979Z,32.60
2022-08-03T10:49:33.885Z,32.67
2022-08-03T10:51:52.550Z,32.61
2022-08-03T10:54:58.745Z,32.87
2022-08-03T10:57:44.169Z,32.77
2022-08-03T11:00:15.547Z,32.31
2022-08-03T11:03:02.084Z,33.26
2022-08-03T11:05:32.343Z,32.44
2022-08-03T11:08:19.968Z,32.08
2022-08-03T11:10:50.252Z,31.08
2022-08-03T11:13:20.753Z,31.84
2022-08-03T11:15:50.855Z,32.09
2022-08-03T11:18:19.731Z,31.81
2022-08-03T11:20:49.785Z,31.23
2022-08-03T11:23:19.675Z,30.12
2022-08-03T11:26:08.255Z,29.45
2022-08-03T11:28:38.823Z,29.52
2022-08-03T11:31:48.827Z,29.43
2022-08-03T11:34:07.860Z,30.54
2022-08-03T11:36:54.808Z,31.65
2022-08-03T11:39:23.535Z,32.21
2022-08-03T11:41:52.345Z,32.50
2022-08-03T11:44:39.130Z,32.73
2022-08-03T11:47:09.629Z,32.52
2022-08-03T11:49:40.312Z,31.92
2022-08-03T11:52:09.662Z,31.43
2022-08-03T11:54:38.558Z,31.49
2022-08-03T11:57:07.442Z,32.07
2022-08-03T11:59:38.987Z,31.58
2022-08-03T12:02:08.527Z,31.08
2022-08-03T12:04:53.419Z,30.01
2022-08-03T12:08:02.746Z,30.26
2022-08-03T12:10:08.256Z,30.89
2022-08-03T12:12:37.365Z,31.79
2022-08-03T12:15:06.792Z,31.27
2022-08-03T12:17:37.999Z,31.98
2022-08-03T12:20:07.912Z,31.12
2022-08-03T12:22:39.623Z,31.66
2022-08-03T12:25:09.108Z,32.07
2022-08-03T12:27:37.903Z,32.28
2022-08-03T12:30:06.950Z,32.00
2022-08-03T12:32:35.761Z,31.93
2022-08-03T12:35:07.180Z,32.15
2022-08-03T12:37:36.390Z,32.09
2022-08-03T12:40:10.468Z,32.80
2022-08-03T12:42:38.760Z,33.22
2022-08-03T12:45:25.770Z,33.43
2022-08-03T12:47:55.897Z,32.91
2022-08-03T12:50:32.133Z,32.73
2022-08-03T12:53:01.562Z,33.31
2022-08-03T12:55:57.005Z,32.56
2022-08-03T12:58:09.640Z,33.31
2022-08-03T13:00:38.802Z,33.17
2022-08-03T13:03:39.663Z,33.41
2022-08-03T13:05:46.145Z,33.41
2022-08-03T13:08:20.010Z,33.87
2022-08-03T13:10:49.266Z,33.98
2022-08-03T13:13:18.112Z,32.90
2022-08-03T13:15:47.946Z,33.33
2022-08-03T13:18:17.549Z,33.18
2022-08-03T13:20:46.412Z,33.28
2022-08-03T13:23:22.189Z,33.80
2022-08-03T13:25:55.269Z,32.62
2022-08-03T13:28:16.419Z,33.61
2022-08-03T13:30:45.315Z,33.61
2022-08-03T13:33:14.228Z,32.63
2022-08-03T13:35:42.896Z,32.93
2022-08-03T13:38:11.846Z,33.28
2022-08-03T13:40:41.792Z,33.42
2022-08-03T13:43:10.897Z,33.21
2022-08-03T13:45:40.016Z,33.65
2022-08-03T13:48:08.839Z,33.70
2022-08-03T13:50:42.551Z,32.99
2022-08-03T13:53:08.571Z,32.60
2022-08-03T13:55:37.898Z,32.95
2022-08-03T13:58:08.318Z,33.15
2022-08-03T14:00:37.063Z,33.20
2022-08-03T14:03:13.310Z,32.93
2022-08-03T14:05:38.542Z,33.21
2022-08-03T14:08:07.934Z,33.51
2022-08-03T14:10:41.306Z,33.29
2022-08-03T14:13:11.363Z,33.67
2022-08-03T14:15:41.513Z,33.21
2022-08-03T14:18:15.765Z,33.54
2022-08-03T14:20:50.149Z,33.68
2022-08-03T14:23:13.089Z,33.93
2022-08-03T14:25:51.514Z,33.22
2022-08-03T14:28:13.547Z,32.95
2022-08-03T14:30:42.343Z,33.46
2022-08-03T14:33:11.125Z,33.27
2022-08-03T14:35:41.183Z,31.94
2022-08-03T14:38:10.059Z,32.77
2022-08-03T14:40:46.914Z,33.21
2022-08-03T14:43:17.458Z,33.46
2022-08-03T14:45:47.097Z,33.40
2022-08-03T14:50:34.226Z,32.65
2022-08-03T14:50:51.319Z,32.15
2022-08-03T14:53:17.719Z,32.54
2022-08-03T14:55:50.264Z,32.52
2022-08-03T14:58:20.801Z,32.46
2022-08-03T15:00:49.941Z,33.09
2022-08-03T15:03:21.263Z,33.34
2022-08-03T15:05:50.633Z,33.40
2022-08-03T15:08:19.716Z,33.32
2022-08-03T15:10:49.831Z,33.24
2022-08-03T15:13:19.964Z,32.73
2022-08-03T15:15:50.122Z,32.95
2022-08-03T15:18:20.105Z,32.84
2022-08-03T15:20:50.582Z,32.76
2022-08-03T15:23:19.872Z,32.85
2022-08-03T15:26:03.645Z,33.04
2022-08-03T15:28:20.469Z,32.56
2022-08-03T15:30:49.199Z,32.67
2022-08-03T15:33:18.320Z,32.38
2022-08-03T15:35:47.652Z,32.18
2022-08-03T15:38:16.667Z,32.00
2022-08-03T15:40:45.648Z,32.11
2022-08-03T15:43:14.545Z,32.18
2022-08-03T15:45:44.979Z,32.07
2022-08-03T15:48:14.221Z,31.93
2022-08-03T15:50:43.740Z,32.04
2022-08-03T15:53:12.542Z,32.09
2022-08-03T15:55:41.289Z,32.03
2022-08-03T15:59:03.927Z,32.03
2022-08-03T16:00:41.129Z,31.99
2022-08-03T16:03:10.432Z,31.88
2022-08-03T16:05:39.166Z,31.98
2022-08-03T16:08:13.234Z,31.87
2022-08-03T16:10:41.634Z,31.65
2022-08-03T16:13:10.361Z,31.66
2022-08-03T16:15:39.088Z,31.55
2022-08-03T16:18:08.113Z,31.14
2022-08-03T16:20:36.915Z,31.46
2022-08-03T16:23:11.632Z,31.27
2022-08-03T16:25:37.094Z,31.36
2022-08-03T16:28:12.775Z,31.40
2022-08-03T16:30:36.389Z,31.30
2022-08-03T16:33:05.182Z,31.20
2022-08-03T16:35:33.994Z,31.04
2022-08-03T16:38:07.801Z,30.94
2022-08-03T16:40:33.508Z,30.99
2022-08-03T16:43:18.941Z,30.57
2022-08-03T16:45:46.740Z,30.53
2022-08-03T16:48:16.227Z,30.50
2022-08-03T16:50:45.540Z,30.67
2022-08-03T16:53:16.898Z,30.38
2022-08-03T16:55:52.332Z,30.43
2022-08-03T16:58:19.238Z,30.30
2022-08-03T17:00:51.059Z,30.29
2022-08-03T17:03:24.249Z,30.24
2022-08-03T17:05:53.319Z,30.26
2022-08-03T17:08:26.617Z,30.40
2022-08-03T17:10:54.204Z,30.36
2022-08-03T17:13:39.285Z,30.37
2022-08-03T17:15:58.046Z,30.37
2022-08-03T17:18:28.926Z,30.19
2022-08-03T17:20:59.211Z,30.14
2022-08-03T17:23:41.525Z,30.04
2022-08-03T17:26:20.889Z,30.07
2022-08-03T17:28:51.914Z,29.88
2022-08-03T17:31:23.316Z,29.71
2022-08-03T17:33:54.664Z,29.61
2022-08-03T17:36:23.440Z,29.44
2022-08-03T17:38:56.613Z,29.37
2022-08-03T17:41:26.468Z,29.28
2022-08-03T17:44:15.687Z,29.23
2022-08-03T17:46:26.818Z,29.11
2022-08-03T17:48:57.101Z,29.05
2022-08-03T17:51:32.001Z,29.04
2022-08-03T17:54:18.176Z,28.88
2022-08-03T17:56:46.790Z,28.63
2022-08-03T17:59:17.112Z,28.32
2022-08-03T18:02:22.311Z,28.23
2022-08-03T18:04:41.668Z,27.99
2022-08-03T18:07:12.802Z,27.23
2022-08-03T18:10:03.426Z,27.34
2022-08-03T18:12:14.591Z,27.05
2022-08-03T18:15:00.676Z,26.88
2022-08-03T18:17:19.680Z,26.64
2022-08-03T18:20:03.606Z,26.44
2022-08-03T18:22:21.100Z,26.28
2022-08-03T18:24:51.309Z,26.10
2022-08-03T18:27:21.841Z,26.04
2022-08-03T18:29:51.790Z,25.84
2022-08-03T18:32:20.659Z,25.75
2022-08-03T18:34:53.106Z,25.66
2022-08-03T18:37:26.293Z,25.40
2022-08-03T18:39:57.982Z,25.29
2022-08-03T18:42:27.218Z,25.24
2022-08-03T18:44:57.077Z,24.99
2022-08-03T18:47:50.547Z,24.88
2022-08-03T18:50:09.655Z,24.69
2022-08-03T18:52:40.322Z,24.39
2022-08-03T18:55:20.287Z,24.37
2022-08-03T18:57:44.461Z,24.13
2022-08-03T19:00:16.731Z,24.02
2022-08-03T19:02:52.176Z,23.98
2022-08-03T19:05:24.675Z,23.90
2022-08-03T19:07:58.283Z,23.83
2022-08-03T19:10:29.411Z,23.72
2022-08-03T19:13:01.334Z,23.62
2022-08-03T19:18:08.880Z,23.40
2022-08-03T19:20:34.912Z,23.24
2022-08-03T19:23:04.121Z,23.16
2022-08-03T19:25:36.051Z,23.01
2022-08-03T19:28:05.940Z,22.95
2022-08-03T19:30:38.806Z,22.91
2022-08-03T19:33:08.084Z,22.88
2022-08-03T19:35:49.740Z,22.72
2022-08-03T19:38:09.788Z,22.72
2022-08-03T19:40:42.071Z,22.59
2022-08-03T19:43:12.457Z,22.54
2022-08-03T19:46:05.973Z,22.46
2022-08-03T19:48:15.485Z,22.32
2022-08-03T19:50:45.477Z,22.34
2022-08-03T19:53:15.317Z,22.26
2022-08-03T19:55:48.861Z,22.18
2022-08-03T19:58:17.813Z,22.20
2022-08-03T20:00:48.529Z,22.24
2022-08-03T20:03:21.841Z,22.04
2022-08-03T20:05:52.230Z,21.91
2022-08-03T20:08:19.054Z,21.81
2022-08-03T20:10:49.746Z,21.76
2022-08-03T20:13:20.563Z,21.73
2022-08-03T20:15:53.536Z,21.61
2022-08-03T20:18:22.305Z,21.57
2022-08-03T20:20:52.949Z,21.56
2022-08-03T20:23:22.704Z,21.48
2022-08-03T20:25:58.619Z,21.46
2022-08-03T20:28:34.177Z,21.56
2022-08-03T20:31:02.885Z,21.38
2022-08-03T20:33:46.725Z,21.26
2022-08-03T20:36:02.170Z,21.42
2022-08-03T20:38:30.901Z,21.59
2022-08-03T20:41:00.391Z,21.43
2022-08-03T20:43:29.207Z,21.36
2022-08-03T20:45:59.605Z,21.25
2022-08-03T20:48:28.513Z,21.35
2022-08-03T20:50:57.838Z,21.37
2022-08-03T20:53:57.337Z,21.33
2022-08-03T20:56:02.303Z,21.15
2022-08-03T20:58:29.401Z,21.08
2022-08-03T21:00:58.387Z,21.12
2022-08-03T21:03:41.255Z,21.29
2022-08-03T21:05:59.083Z,21.14
2022-08-03T21:08:29.712Z,21.00
2022-08-03T21:10:59.135Z,20.80
2022-08-03T21:13:10.126Z,23.51
2022-08-03T21:13:30.283Z,20.90
2022-08-03T21:16:06.261Z,20.89
2022-08-03T21:18:31.863Z,20.84
2022-08-03T21:21:01.899Z,20.76
2022-08-03T21:23:35.180Z,20.79
2022-08-03T21:26:03.489Z,20.70
2022-08-03T21:28:32.309Z,20.83
2022-08-03T21:31:01.826Z,20.59
2022-08-03T21:33:30.824Z,20.62
2022-08-03T21:36:00.208Z,20.40
2022-08-03T21:38:30.501Z,20.27
2022-08-03T21:41:00.229Z,20.24
2022-08-03T21:43:29.043Z,20.18
2022-08-03T21:46:05.196Z,20.07
2022-08-03T21:48:38.314Z,20.07
2022-08-03T21:51:08.540Z,19.93
2022-08-03T21:54:03.900Z,20.04
2022-08-03T21:56:09.606Z,20.03
2022-08-03T21:58:57.756Z,19.95
2022-08-03T22:01:27.275Z,19.92
2022-08-03T22:03:58.396Z,19.82
2022-08-03T22:06:30.049Z,19.72
2022-08-03T22:08:59.163Z,19.73
2022-08-03T22:11:28.217Z,19.76
2022-08-03T22:13:58.093Z,19.73
2022-08-03T22:16:26.922Z,19.76
2022-08-03T22:18:55.719Z,19.70
2022-08-03T22:21:27.692Z,19.64
2022-08-03T22:23:57.869Z,19.51
2022-08-03T22:26:34.743Z,19.42
2022-08-03T22:29:01.818Z,19.33
2022-08-03T22:31:57.784Z,19.31
2022-08-03T22:34:01.136Z,19.17
2022-08-03T22:36:34.719Z,19.10
2022-08-03T22:39:03.614Z,19.03
2022-08-03T22:41:32.581Z,19.05
2022-08-03T22:44:04.468Z,18.90
2022-08-03T22:46:33.020Z,18.91
2022-08-03T22:49:02.351Z,18.89
2022-08-03T22:51:32.091Z,18.86
2022-08-03T22:54:01.209Z,18.86
2022-08-03T22:56:32.141Z,18.74
2022-08-03T22:59:01.553Z,18.72
2022-08-03T23:01:33.449Z,18.77
2022-08-03T23:04:03.954Z,18.64
2022-08-03T23:06:39.396Z,18.54
2022-08-03T23:09:09.735Z,18.53
2022-08-03T23:11:45.345Z,18.45
2022-08-03T23:14:15.231Z,18.46
2022-08-03T23:16:45.033Z,18.43
2022-08-03T23:19:17.098Z,18.36
2022-08-03T23:21:53.872Z,18.30
2022-08-03T23:24:26.147Z,18.33
2022-08-03T23:26:48.547Z,18.29
2022-08-03T23:29:17.877Z,18.43
2022-08-03T23:31:47.605Z,18.20
2022-08-03T23:34:35.754Z,18.17
2022-08-03T23:37:07.009Z,18.06
2022-08-03T23:39:37.975Z,18.02
2022-08-03T23:42:06.984Z,17.99
2022-08-03T23:44:37.519Z,17.99
2022-08-03T23:47:06.501Z,18.02
2022-08-03T23:49:36.140Z,17.93
2022-08-03T23:52:10.398Z,17.80
2022-08-03T23:54:46.547Z,17.75
2022-08-03T23:57:32.158Z,17.79
